createdAt,value
2023-03-21T00:02:17.250Z,2.63
2023-03-21T00:04:52.355Z,2.90
2023-03-21T00:07:22.668Z,2.30
2023-03-21T00:09:53.644Z,3.03
2023-03-21T00:12:22.825Z,3.27
2023-03-21T00:14:54.135Z,5.47
2023-03-21T00:17:23.419Z,3.03
2023-03-21T00:19:55.400Z,4.00
2023-03-21T00:22:27.631Z,3.03
2023-03-21T00:24:56.686Z,2.93
2023-03-21T00:30:17.289Z,2.50
2023-03-21T00:32:55.542Z,2.43
2023-03-21T00:35:57.365Z,2.23
2023-03-21T00:38:15.374Z,3.77
2023-03-21T00:40:49.169Z,3.10
2023-03-21T00:43:19.592Z,2.60
2023-03-21T00:45:51.336Z,2.60
2023-03-21T00:48:20.731Z,2.13
2023-03-21T00:50:52.487Z,2.00
2023-03-21T00:53:23.801Z,2.50
2023-03-21T00:55:52.893Z,2.90
2023-03-21T00:58:21.939Z,3.17
2023-03-21T01:00:53.014Z,3.67
2023-03-21T01:03:25.179Z,2.80
2023-03-21T01:06:05.105Z,2.67
2023-03-21T01:08:50.688Z,2.90
2023-03-21T01:11:23.900Z,2.90
2023-03-21T01:13:57.859Z,4.50
2023-03-21T01:16:32.686Z,3.50
2023-03-21T01:19:04.925Z,5.27
2023-03-21T01:21:37.845Z,3.30
2023-03-21T01:24:08.422Z,3.57
2023-03-21T01:26:38.498Z,6.87
2023-03-21T01:29:10.497Z,3.17
2023-03-21T01:31:41.240Z,2.63
2023-03-21T01:34:10.365Z,2.63
2023-03-21T01:36:39.528Z,3.10
2023-03-21T01:39:32.886Z,3.77
2023-03-21T01:42:02.043Z,3.90
2023-03-21T01:44:31.678Z,3.20
2023-03-21T01:47:11.976Z,2.93
2023-03-21T01:49:46.033Z,3.20
2023-03-21T01:52:40.302Z,3.30
2023-03-21T01:55:14.857Z,3.30
2023-03-21T01:58:05.952Z,2.80
2023-03-21T02:00:56.769Z,3.40
2023-03-21T02:03:38.342Z,2.83
2023-03-21T02:06:36.865Z,3.00
2023-03-21T02:09:23.267Z,3.33
2023-03-21T02:11:53.000Z,3.57
2023-03-21T02:14:29.242Z,3.57
2023-03-21T02:17:35.087Z,3.03
2023-03-21T02:20:43.465Z,3.07
2023-03-21T02:24:11.711Z,3.23
2023-03-21T02:27:03.974Z,2.63
2023-03-21T02:30:28.217Z,2.60
2023-03-21T02:33:22.452Z,1.80
2023-03-21T02:36:14.877Z,2.30
2023-03-21T02:38:56.247Z,2.40
2023-03-21T02:41:40.713Z,2.60
2023-03-21T02:44:21.377Z,2.50
2023-03-21T02:47:03.236Z,4.57
2023-03-21T02:49:43.393Z,2.40
2023-03-21T02:52:32.084Z,4.83
2023-03-21T02:55:15.692Z,2.20
2023-03-21T02:58:06.919Z,2.57
2023-03-21T03:00:44.878Z,2.30
2023-03-21T03:03:33.093Z,3.53
2023-03-21T03:06:12.886Z,1.90
2023-03-21T03:09:02.723Z,2.30
2023-03-21T03:11:36.983Z,2.20
2023-03-21T03:14:49.499Z,2.47
2023-03-21T03:17:37.436Z,4.50
2023-03-21T03:20:22.059Z,2.50
2023-03-21T03:23:00.819Z,3.00
2023-03-21T03:25:42.463Z,2.57
2023-03-21T03:28:24.697Z,2.43
2023-03-21T03:31:08.684Z,3.17
2023-03-21T03:33:57.159Z,3.27
2023-03-21T03:36:33.130Z,3.20
2023-03-21T03:39:12.641Z,2.43
2023-03-21T03:42:07.991Z,2.40
2023-03-21T03:44:44.856Z,2.53
2023-03-21T03:47:32.233Z,2.43
2023-03-21T03:50:10.064Z,2.43
2023-03-21T03:52:55.807Z,2.17
2023-03-21T03:55:34.574Z,2.03
2023-03-21T03:58:21.774Z,3.53
2023-03-21T04:00:56.475Z,2.27
2023-03-21T04:03:27.250Z,1.70
2023-03-21T04:05:57.184Z,1.77
2023-03-21T04:08:26.703Z,5.20
2023-03-21T04:10:59.257Z,1.50
2023-03-21T04:13:29.091Z,2.13
2023-03-21T04:16:11.712Z,2.30
2023-03-21T04:18:42.654Z,2.73
2023-03-21T04:21:14.159Z,1.97
2023-03-21T04:23:44.225Z,3.40
2023-03-21T04:26:13.629Z,2.40
2023-03-21T04:28:52.429Z,2.77
2023-03-21T04:31:58.356Z,2.10
2023-03-21T04:34:28.449Z,1.73
2023-03-21T04:37:01.074Z,2.20
2023-03-21T04:39:30.424Z,1.90
2023-03-21T04:41:59.960Z,2.43
2023-03-21T04:44:30.591Z,2.63
2023-03-21T04:47:01.425Z,2.00
2023-03-21T04:49:30.970Z,2.97
2023-03-21T04:52:00.351Z,2.10
2023-03-21T04:54:30.147Z,2.30
2023-03-21T04:57:00.042Z,5.70
2023-03-21T04:59:30.276Z,2.30
2023-03-21T05:02:01.731Z,2.17
2023-03-21T05:04:34.202Z,3.33
2023-03-21T05:07:03.596Z,1.53
2023-03-21T05:09:33.216Z,1.40
2023-03-21T05:12:02.628Z,1.97
2023-03-21T05:14:34.155Z,1.77
2023-03-21T05:17:05.555Z,1.67
2023-03-21T05:19:36.446Z,2.20
2023-03-21T05:22:10.948Z,2.23
2023-03-21T05:24:41.999Z,2.10
2023-03-21T05:27:36.485Z,2.20
2023-03-21T05:30:17.679Z,2.17
2023-03-21T05:32:51.114Z,2.30
2023-03-21T05:35:22.113Z,2.10
2023-03-21T05:37:51.809Z,2.33
2023-03-21T05:40:21.687Z,1.63
2023-03-21T05:42:51.898Z,1.80
2023-03-21T05:45:25.964Z,2.33
2023-03-21T05:47:57.822Z,1.60
2023-03-21T05:50:30.819Z,1.60
2023-03-21T05:53:23.205Z,1.40
2023-03-21T05:55:53.010Z,2.47
2023-03-21T05:58:41.361Z,1.40
2023-03-21T06:01:11.430Z,1.67
2023-03-21T06:03:47.307Z,1.47
2023-03-21T06:06:23.286Z,1.63
2023-03-21T06:09:02.705Z,2.10
2023-03-21T06:11:36.398Z,2.10
2023-03-21T06:14:34.508Z,2.00
2023-03-21T06:17:17.028Z,2.30
2023-03-21T06:19:53.040Z,2.37
2023-03-21T06:22:42.279Z,3.07
2023-03-21T06:25:11.957Z,2.47
2023-03-21T06:27:43.069Z,1.73
2023-03-21T06:30:14.319Z,1.77
2023-03-21T06:32:56.270Z,1.50
2023-03-21T06:35:27.430Z,2.43
2023-03-21T06:37:58.478Z,1.57
2023-03-21T06:40:30.044Z,1.50
2023-03-21T06:43:00.335Z,1.87
2023-03-21T06:45:30.093Z,2.20
2023-03-21T06:47:59.832Z,2.30
2023-03-21T06:50:59.463Z,2.03
2023-03-21T06:53:34.209Z,2.23
2023-03-21T06:56:23.225Z,2.63
2023-03-21T06:58:53.265Z,2.43
2023-03-21T07:01:40.054Z,2.73
2023-03-21T07:07:41.305Z,2.60
2023-03-21T07:10:12.895Z,4.40
2023-03-21T07:12:55.330Z,2.50
2023-03-21T07:15:33.360Z,3.47
2023-03-21T07:18:03.368Z,3.17
2023-03-21T07:20:39.296Z,2.67
2023-03-21T07:23:10.410Z,3.77
2023-03-21T07:25:40.283Z,3.30
2023-03-21T07:28:09.974Z,3.53
2023-03-21T07:30:39.688Z,2.87
2023-03-21T07:33:09.512Z,2.57
2023-03-21T07:35:40.308Z,2.33
2023-03-21T07:38:12.260Z,3.77
2023-03-21T07:40:41.792Z,2.40
2023-03-21T07:43:11.420Z,1.80
2023-03-21T07:45:45.457Z,2.10
2023-03-21T07:58:29.961Z,2.10
2023-03-21T08:22:19.231Z,1.87
2023-03-21T08:39:10.972Z,2.40
2023-03-21T08:42:25.154Z,2.47
2023-03-21T08:44:54.167Z,2.03
2023-03-21T08:47:23.226Z,2.57
2023-03-21T08:49:52.211Z,1.73
2023-03-21T08:52:23.495Z,2.87
2023-03-21T08:54:54.132Z,2.10
2023-03-21T08:57:23.767Z,3.03
2023-03-21T08:59:52.985Z,2.70
2023-03-21T09:02:22.175Z,2.90
2023-03-21T09:04:53.172Z,3.70
2023-03-21T09:07:26.437Z,3.83
2023-03-21T09:10:14.761Z,2.20
2023-03-21T09:12:46.058Z,4.23
2023-03-21T09:15:15.620Z,1.70
2023-03-21T09:17:50.336Z,1.90
2023-03-21T09:20:20.915Z,3.10
2023-03-21T09:22:52.333Z,1.80
2023-03-21T09:25:23.796Z,2.17
2023-03-21T09:27:54.515Z,5.13
2023-03-21T09:30:26.259Z,2.67
2023-03-21T09:32:57.866Z,3.23
2023-03-21T09:35:27.131Z,2.77
2023-03-21T09:37:59.179Z,3.83
2023-03-21T09:40:52.743Z,3.03
2023-03-21T09:43:38.496Z,5.17
2023-03-21T09:46:15.398Z,3.10
2023-03-21T09:48:57.408Z,2.67
2023-03-21T09:51:33.062Z,1.40
2023-03-21T09:54:08.751Z,2.73
2023-03-21T09:56:42.505Z,3.10
2023-03-21T09:59:23.223Z,4.83
2023-03-21T10:01:52.510Z,3.93
2023-03-21T10:04:22.394Z,3.43
2023-03-21T10:06:59.232Z,4.20
2023-03-21T10:09:30.372Z,3.47
2023-03-21T10:12:08.370Z,5.27
2023-03-21T10:14:41.904Z,2.73
2023-03-21T10:17:26.862Z,4.20
2023-03-21T10:20:12.252Z,3.17
2023-03-21T10:22:46.059Z,4.67
2023-03-21T10:25:19.827Z,5.80
2023-03-21T10:27:52.767Z,2.80
2023-03-21T10:30:31.875Z,3.53
2023-03-21T10:33:09.543Z,4.53
2023-03-21T10:35:40.631Z,3.20
2023-03-21T10:38:18.440Z,3.10
2023-03-21T10:40:47.784Z,2.77
2023-03-21T10:43:33.951Z,2.83
2023-03-21T10:46:14.197Z,2.60
2023-03-21T10:48:47.106Z,3.00
2023-03-21T10:51:21.855Z,2.60
2023-03-21T10:53:55.697Z,3.43
2023-03-21T10:56:29.179Z,2.73
2023-03-21T10:59:01.748Z,2.83
2023-03-21T11:01:37.995Z,2.27
2023-03-21T11:04:16.621Z,3.20
2023-03-21T11:06:52.433Z,2.70
2023-03-21T11:09:25.146Z,4.53
2023-03-21T11:11:56.753Z,2.10
2023-03-21T11:14:34.507Z,3.23
2023-03-21T11:17:14.521Z,2.77
2023-03-21T11:19:50.469Z,2.90
2023-03-21T11:22:22.398Z,2.00
2023-03-21T11:24:55.011Z,2.00
2023-03-21T11:27:24.815Z,2.07
2023-03-21T11:29:56.105Z,2.03
2023-03-21T11:32:31.468Z,3.07
2023-03-21T11:35:03.257Z,2.00
2023-03-21T11:37:36.056Z,2.17
2023-03-21T11:40:21.706Z,1.90
2023-03-21T11:42:53.736Z,1.77
2023-03-21T11:45:26.383Z,2.50
2023-03-21T11:47:58.091Z,1.80
2023-03-21T11:50:33.896Z,2.00
2023-03-21T11:53:20.682Z,1.40
2023-03-21T11:56:08.721Z,1.70
2023-03-21T11:58:54.284Z,1.53
2023-03-21T12:01:31.638Z,1.63
2023-03-21T12:04:22.821Z,3.77
2023-03-21T12:06:58.082Z,1.60
2023-03-21T12:09:38.396Z,1.90
2023-03-21T12:12:38.445Z,2.13
2023-03-21T12:15:18.812Z,2.00
2023-03-21T12:17:59.465Z,1.30
2023-03-21T12:20:41.986Z,1.70
2023-03-21T12:23:37.869Z,2.10
2023-03-21T12:26:19.276Z,2.03
2023-03-21T12:29:11.323Z,2.13
2023-03-21T12:31:54.041Z,2.40
2023-03-21T12:34:58.382Z,2.00
2023-03-21T12:37:39.299Z,4.57
2023-03-21T12:40:16.870Z,1.63
2023-03-21T12:43:23.177Z,1.70
2023-03-21T12:45:57.344Z,2.10
2023-03-21T12:48:37.141Z,3.17
2023-03-21T12:51:13.608Z,3.77
2023-03-21T12:53:54.021Z,2.07
2023-03-21T12:56:30.351Z,2.53
2023-03-21T12:59:06.217Z,1.63
2023-03-21T13:01:38.835Z,2.50
2023-03-21T13:04:29.155Z,1.83
2023-03-21T13:07:03.333Z,1.70
2023-03-21T13:09:38.434Z,1.73
2023-03-21T13:12:40.696Z,1.20
2023-03-21T13:15:54.939Z,1.47
2023-03-21T13:18:48.910Z,1.40
2023-03-21T13:21:24.400Z,2.00
2023-03-21T13:24:16.766Z,1.27
2023-03-21T13:26:51.017Z,1.20
2023-03-21T13:29:27.453Z,4.57
2023-03-21T13:32:02.122Z,1.60
2023-03-21T13:34:32.269Z,1.77
2023-03-21T13:37:04.031Z,1.20
2023-03-21T13:39:34.734Z,1.40
2023-03-21T13:42:07.511Z,1.03
2023-03-21T13:44:45.415Z,3.83
2023-03-21T13:47:42.781Z,1.30
2023-03-21T13:50:37.608Z,1.67
2023-03-21T13:53:27.311Z,1.63
2023-03-21T13:56:23.848Z,1.50
2023-03-21T13:59:00.161Z,1.67
2023-03-21T14:01:41.406Z,1.43
2023-03-21T14:04:17.979Z,2.27
2023-03-21T14:06:52.450Z,2.20
2023-03-21T14:09:28.638Z,2.90
2023-03-21T14:12:06.938Z,2.07
2023-03-21T14:14:41.997Z,2.33
2023-03-21T14:17:14.787Z,2.03
2023-03-21T14:19:43.837Z,2.20
2023-03-21T14:22:14.735Z,1.70
2023-03-21T14:24:50.849Z,2.90
2023-03-21T14:27:21.523Z,1.90
2023-03-21T14:29:53.424Z,1.90
2023-03-21T14:32:27.077Z,2.57
2023-03-21T14:34:58.019Z,1.80
2023-03-21T14:37:29.914Z,1.37
2023-03-21T14:40:01.137Z,2.20
2023-03-21T14:42:37.074Z,1.73
2023-03-21T14:45:20.688Z,1.70
2023-03-21T14:47:59.135Z,1.93
2023-03-21T14:50:39.303Z,2.03
2023-03-21T14:53:13.027Z,1.73
2023-03-21T14:55:48.364Z,1.63
2023-03-21T14:58:19.658Z,1.80
2023-03-21T15:00:51.279Z,1.70
2023-03-21T15:03:24.569Z,2.50
2023-03-21T15:05:53.712Z,1.57
2023-03-21T15:08:26.073Z,1.73
2023-03-21T15:11:08.872Z,1.50
2023-03-21T15:13:46.685Z,1.30
2023-03-21T15:16:16.699Z,2.83
2023-03-21T15:18:48.660Z,2.60
2023-03-21T15:21:24.313Z,2.43
2023-03-21T15:23:58.081Z,1.70
2023-03-21T15:26:28.858Z,5.60
2023-03-21T15:29:02.467Z,2.47
2023-03-21T15:31:36.971Z,1.77
2023-03-21T15:34:07.181Z,2.63
2023-03-21T15:36:44.776Z,2.10
2023-03-21T15:39:20.498Z,2.10
2023-03-21T15:42:21.555Z,1.97
2023-03-21T15:44:57.444Z,2.00
2023-03-21T15:47:50.569Z,2.20
2023-03-21T15:50:29.672Z,2.30
2023-03-21T15:53:03.193Z,2.10
2023-03-21T15:55:48.270Z,2.47
2023-03-21T15:58:21.377Z,2.47
2023-03-21T16:00:55.666Z,2.30
2023-03-21T16:03:28.986Z,2.53
2023-03-21T16:06:17.731Z,3.27
2023-03-21T16:08:54.463Z,2.93
2023-03-21T16:11:30.176Z,2.13
2023-03-21T16:14:02.981Z,2.27
2023-03-21T16:16:34.456Z,2.40
2023-03-21T16:19:07.307Z,3.00
2023-03-21T16:21:38.357Z,3.43
2023-03-21T16:24:11.482Z,2.23
2023-03-21T16:26:47.630Z,2.37
2023-03-21T16:29:19.096Z,1.67
2023-03-21T16:31:50.873Z,2.07
2023-03-21T16:34:20.794Z,1.90
2023-03-21T16:36:50.455Z,7.07
2023-03-21T16:39:22.737Z,2.00
2023-03-21T16:41:52.037Z,2.63
2023-03-21T16:44:21.603Z,2.77
2023-03-21T16:46:51.927Z,2.47
2023-03-21T16:49:24.870Z,2.40
2023-03-21T16:51:55.024Z,2.33
2023-03-21T16:54:24.410Z,2.37
2023-03-21T16:56:55.954Z,2.53
2023-03-21T16:59:24.944Z,3.03
2023-03-21T17:01:55.251Z,1.53
2023-03-21T17:04:29.856Z,1.70
2023-03-21T17:07:06.995Z,1.47
2023-03-21T17:09:42.610Z,3.63
2023-03-21T17:12:16.099Z,5.10
2023-03-21T17:14:48.812Z,3.70
2023-03-21T17:17:24.472Z,3.40
2023-03-21T17:19:55.742Z,2.70
2023-03-21T17:22:24.764Z,2.47
2023-03-21T17:24:56.723Z,2.10
2023-03-21T17:27:25.895Z,5.93
2023-03-21T17:29:54.938Z,3.93
2023-03-21T17:32:25.309Z,3.60
2023-03-21T17:35:04.628Z,3.80
2023-03-21T17:37:43.627Z,3.77
2023-03-21T17:40:19.160Z,3.77
2023-03-21T17:42:50.964Z,3.80
2023-03-21T17:45:27.560Z,2.93
2023-03-21T17:47:59.524Z,3.87
2023-03-21T17:57:28.327Z,3.90
2023-03-21T18:01:22.196Z,4.00
2023-03-21T18:16:07.400Z,3.63
2023-03-21T18:19:02.680Z,3.53
2023-03-21T18:21:36.069Z,3.83
2023-03-21T18:24:07.521Z,3.63
2023-03-21T18:26:36.940Z,3.53
2023-03-21T18:30:11.600Z,3.50
2023-03-21T18:32:06.457Z,3.53
2023-03-21T18:34:39.525Z,3.30
2023-03-21T18:37:13.123Z,3.50
2023-03-21T18:39:45.272Z,3.97
2023-03-21T18:42:19.541Z,4.00
2023-03-21T18:44:51.582Z,3.87
2023-03-21T18:47:21.202Z,3.90
2023-03-21T18:50:14.125Z,3.90
2023-03-21T18:52:40.911Z,5.40
2023-03-21T18:55:11.916Z,4.87
2023-03-21T18:57:40.953Z,6.77
2023-03-21T19:00:16.981Z,8.33
2023-03-21T19:02:50.804Z,7.40
2023-03-21T19:05:24.547Z,6.07
2023-03-21T19:07:54.198Z,5.07
2023-03-21T19:10:25.267Z,4.60
2023-03-21T19:12:55.704Z,4.47
2023-03-21T19:15:25.523Z,4.33
2023-03-21T19:20:46.914Z,3.60
2023-03-21T19:23:17.274Z,3.73
2023-03-21T19:25:48.357Z,3.07
2023-03-21T19:28:17.479Z,3.30
2023-03-21T19:30:50.138Z,3.37
2023-03-21T19:33:21.118Z,3.13
2023-03-21T19:36:08.977Z,2.80
2023-03-21T19:38:40.376Z,2.90
2023-03-21T19:41:11.109Z,3.90
2023-03-21T19:43:43.456Z,4.07
2023-03-21T19:46:22.737Z,3.60
2023-03-21T19:48:56.278Z,3.37
2023-03-21T19:51:30.240Z,2.93
2023-03-21T19:54:00.258Z,3.13
2023-03-21T19:56:31.597Z,3.50
2023-03-21T19:59:02.872Z,3.50
2023-03-21T20:01:33.269Z,4.17
2023-03-21T20:04:02.294Z,4.23
2023-03-21T20:06:31.523Z,3.93
2023-03-21T20:11:53.217Z,5.23
2023-03-21T20:14:22.312Z,6.50
2023-03-21T20:16:51.420Z,4.80
2023-03-21T20:19:20.428Z,5.50
2023-03-21T20:21:57.897Z,5.10
2023-03-21T20:24:29.164Z,5.70
2023-03-21T20:26:59.528Z,6.17
2023-03-21T20:32:17.561Z,6.10
2023-03-21T20:34:46.817Z,5.37
2023-03-21T20:37:18.293Z,6.17
2023-03-21T20:39:47.351Z,5.57
2023-03-21T20:42:18.027Z,5.70
2023-03-21T20:44:58.794Z,6.50
2023-03-21T20:47:28.371Z,6.67
2023-03-21T20:49:58.375Z,7.63
2023-03-21T20:52:54.831Z,6.70
2023-03-21T20:55:18.170Z,7.57
2023-03-21T20:57:51.120Z,7.30
2023-03-21T21:00:22.183Z,5.97
2023-03-21T21:02:51.930Z,5.67
2023-03-21T21:05:28.176Z,5.37
2023-03-21T21:08:03.653Z,5.27
2023-03-21T21:10:33.797Z,5.70
2023-03-21T21:13:07.849Z,6.80
2023-03-21T21:15:39.657Z,13.93
2023-03-21T21:18:10.000Z,11.10
2023-03-21T21:20:40.129Z,8.70
2023-03-21T21:23:10.146Z,7.93
2023-03-21T21:25:39.173Z,8.30
2023-03-21T21:28:11.783Z,7.87
2023-03-21T21:30:42.730Z,7.40
2023-03-21T21:33:14.483Z,7.33
2023-03-21T21:35:47.614Z,7.00
2023-03-21T21:38:18.319Z,7.30
2023-03-21T21:40:48.154Z,6.37
2023-03-21T21:43:19.796Z,5.60
2023-03-21T21:45:50.214Z,5.00
2023-03-21T21:48:19.459Z,3.93
2023-03-21T21:50:52.355Z,4.87
2023-03-21T21:53:22.743Z,5.07
2023-03-21T21:55:52.210Z,5.00
2023-03-21T21:58:23.184Z,5.43
2023-03-21T22:00:52.238Z,7.43
2023-03-21T22:03:22.427Z,8.80
2023-03-21T22:05:53.052Z,7.80
2023-03-21T22:08:23.168Z,8.10
2023-03-21T22:10:55.603Z,7.50
2023-03-21T22:13:26.159Z,5.97
2023-03-21T22:15:55.845Z,5.47
2023-03-21T22:18:25.447Z,5.20
2023-03-21T22:20:54.696Z,5.50
2023-03-21T22:23:26.030Z,6.27
2023-03-21T22:25:55.062Z,5.50
2023-03-21T22:28:25.877Z,5.00
2023-03-21T22:30:55.357Z,4.97
2023-03-21T22:33:24.476Z,4.70
2023-03-21T22:35:54.119Z,4.57
2023-03-21T22:38:25.089Z,4.57
2023-03-21T22:40:57.474Z,4.50
2023-03-21T22:43:28.633Z,3.93
2023-03-21T22:45:57.699Z,5.13
2023-03-21T22:48:30.247Z,5.93
2023-03-21T22:51:00.761Z,7.67
2023-03-21T22:53:31.576Z,6.03
2023-03-21T22:56:00.691Z,5.93
2023-03-21T22:58:31.121Z,7.03
2023-03-21T23:01:02.616Z,5.70
2023-03-21T23:03:31.872Z,4.73
2023-03-21T23:06:01.888Z,4.27
2023-03-21T23:08:31.774Z,3.80
2023-03-21T23:11:00.997Z,4.10
2023-03-21T23:13:31.628Z,3.50
2023-03-21T23:16:05.327Z,4.13
2023-03-21T23:18:37.116Z,6.07
2023-03-21T23:21:13.167Z,3.30
2023-03-21T23:23:43.835Z,3.43
2023-03-21T23:26:13.355Z,4.03
2023-03-21T23:28:43.754Z,4.50
2023-03-21T23:31:16.657Z,5.73
2023-03-21T23:33:51.083Z,6.67
2023-03-21T23:36:21.309Z,7.97
2023-03-21T23:38:50.689Z,8.30
2023-03-21T23:41:23.143Z,7.80
2023-03-21T23:43:53.872Z,6.50
2023-03-21T23:46:23.057Z,5.20
2023-03-21T23:48:52.150Z,5.07
2023-03-21T23:51:21.157Z,4.77
2023-03-21T23:53:51.471Z,4.30
2023-03-21T23:56:25.403Z,4.03
2023-03-21T23:58:59.334Z,3.60
